Time;durP1;ratioP1;P1;durP2;ratioP2;P2;SDS_P1;SDS_P2;PMS_P1;PMS_P2;Temp;Humidity;BMP_temperature;BMP_pressure;BME280_temperature;BME280_humidity;BME280_pressure;Samples;Min_cycle;Max_cycle;Signal;HPM_P1;HPM_P2
2023/11/23 00:26:24;;;;;;;78.10;39.30;;;;;;;-2.43;89.61;99191.55;435503;1254;99208;-38
2023/11/23 00:46:43;;;;;;;62.70;32.30;;;;;;;-2.44;89.56;99158.86;432758;1262;459797;-39
2023/11/23 00:56:50;;;;;;;70.50;37.20;;;;;;;-2.26;90.20;99153.98;433496;1262;108401;-40
2023/11/23 01:06:58;;;;;;;69.70;35.10;;;;;;;-2.14;90.32;99141.53;433723;1262;109255;-41
2023/11/23 01:17:06;;;;;;;62.40;32.10;;;;;;;-2.10;90.28;99125.80;434534;1259;106846;-39
2023/11/23 01:27:14;;;;;;;40.50;23.80;;;;;;;-1.98;90.21;99111.53;434724;1259;94622;-42
2023/11/23 01:37:21;;;;;;;32.80;19.90;;;;;;;-1.82;90.23;99095.48;434703;1255;95742;-42
2023/11/23 01:47:29;;;;;;;43.10;23.80;;;;;;;-1.75;90.44;99081.14;434352;1259;107404;-42
2023/11/23 01:57:38;;;;;;;43.30;22.40;;;;;;;-1.77;90.60;99053.20;434353;1259;106872;-42
2023/11/23 02:07:45;;;;;;;40.40;21.30;;;;;;;-1.75;90.64;99034.63;434221;1259;107659;-42
2023/11/23 02:18:03;;;;;;;32.80;19.60;;;;;;;-1.71;90.49;99020.95;434873;1257;95808;-44
2023/11/23 02:28:11;;;;;;;32.90;19.10;;;;;;;-1.63;90.38;99012.48;434207;1255;108570;-42
2023/11/23 02:38:18;;;;;;;33.10;18.90;;;;;;;-1.68;90.57;99005.84;434319;1259;110008;-44
2023/11/23 02:58:30;;;;;;;32.20;19.30;;;;;;;-1.77;91.10;98970.55;434098;1259;107633;-43
2023/11/23 03:08:36;;;;;;;28.50;17.40;;;;;;;-1.68;90.77;98959.20;433979;1260;108236;-43
2023/11/23 03:18:44;;;;;;;29.10;18.20;;;;;;;-1.61;90.91;98947.96;434057;1259;96511;-42
2023/11/23 03:28:51;;;;;;;47.50;22.70;;;;;;;-1.54;91.23;98935.85;434148;1259;107272;-43
2023/11/23 03:59:11;;;;;;;35.20;18.80;;;;;;;-1.45;91.28;98882.84;434182;1260;95745;-44
2023/11/23 04:19:25;;;;;;;48.90;24.20;;;;;;;-1.41;91.80;98836.60;434266;1260;107497;-41
2023/11/23 04:29:32;;;;;;;35.30;19.80;;;;;;;-1.36;91.77;98819.13;434057;1259;108453;-42
2023/11/23 04:39:38;;;;;;;34.90;18.70;;;;;;;-1.22;91.78;98794.75;434275;1259;95274;-41
2023/11/23 04:49:45;;;;;;;37.10;19.60;;;;;;;-1.07;91.92;98776.55;434036;1257;108880;-43
2023/11/23 04:59:50;;;;;;;41.60;20.90;;;;;;;-1.06;92.07;98754.59;434139;1260;108355;-41
2023/11/23 05:09:57;;;;;;;35.30;17.80;;;;;;;-0.96;91.99;98738.77;434259;1259;96152;-41
2023/11/23 05:20:03;;;;;;;29.00;15.50;;;;;;;-0.82;91.79;98729.25;434067;1260;95641;-40
2023/11/23 05:30:08;;;;;;;38.70;18.70;;;;;;;-0.76;91.89;98699.71;434155;1259;109404;-39
2023/11/23 05:50:22;;;;;;;30.20;16.80;;;;;;;-0.63;91.86;98649.88;434202;1259;106850;-38
2023/11/23 06:00:31;;;;;;;34.70;17.30;;;;;;;-0.51;91.80;98628.15;434167;1260;96209;-39
2023/11/23 06:10:38;;;;;;;40.30;20.40;;;;;;;-0.48;92.00;98623.25;434322;1269;109216;-39
2023/11/23 06:20:46;;;;;;;27.20;14.20;;;;;;;-0.39;92.08;98613.55;434243;1260;107161;-39
2023/11/23 06:30:53;;;;;;;32.40;14.90;;;;;;;-0.23;92.00;98593.58;435402;1264;97076;-40
2023/11/23 06:51:06;;;;;;;35.60;17.90;;;;;;;-0.15;92.07;98534.63;435265;1257;107669;-40
2023/11/23 07:01:14;;;;;;;33.80;14.90;;;;;;;-0.02;91.80;98513.52;435290;1251;107196;-41
2023/11/23 07:11:19;;;;;;;28.80;14.90;;;;;;;0.13;91.68;98512.71;435388;1251;97583;-41
2023/11/23 07:21:26;;;;;;;37.80;18.80;;;;;;;0.21;91.70;98507.94;435343;1254;108631;-42
2023/11/23 07:31:34;;;;;;;30.30;15.00;;;;;;;0.23;91.61;98501.96;435341;1251;108325;-41
2023/11/23 07:41:40;;;;;;;22.80;12.50;;;;;;;0.39;91.34;98496.71;435289;1254;95897;-41
2023/11/23 07:51:46;;;;;;;34.90;16.10;;;;;;;0.53;91.36;98489.06;435291;1254;109682;-40
2023/11/23 08:11:59;;;;;;;27.50;13.60;;;;;;;0.86;90.71;98452.94;435559;1254;108361;-42
2023/11/23 08:22:07;;;;;;;34.30;16.90;;;;;;;0.99;90.84;98443.36;435346;1255;95679;-41
2023/11/23 08:32:15;;;;;;;32.00;17.00;;;;;;;1.02;91.07;98445.27;435357;1254;109084;-40
2023/11/23 08:42:22;;;;;;;23.70;13.60;;;;;;;1.12;91.23;98441.90;435534;1254;109111;-40
2023/11/23 08:52:30;;;;;;;30.60;14.50;;;;;;;1.14;91.65;98427.39;435299;1254;95786;-42
2023/11/23 09:12:44;;;;;;;32.80;18.00;;;;;;;1.23;93.02;98389.21;435354;1254;106543;-41
2023/11/23 09:22:52;;;;;;;25.70;14.40;;;;;;;1.28;93.32;98372.17;435288;1254;96629;-41
2023/11/23 09:32:57;;;;;;;24.80;13.50;;;;;;;1.39;93.65;98366.17;435384;1255;108617;-40
2023/11/23 09:43:04;;;;;;;24.50;14.70;;;;;;;1.50;94.23;98347.77;435242;1251;109914;-40
2023/11/23 10:03:17;;;;;;;28.30;15.40;;;;;;;1.69;94.98;98313.55;435482;1251;108008;-42
2023/11/23 10:13:25;;;;;;;18.70;12.40;;;;;;;1.89;95.15;98300.14;435275;1254;108858;-42
2023/11/23 10:23:31;;;;;;;20.10;12.40;;;;;;;2.09;95.52;98260.09;435325;1253;95388;-41
2023/11/23 10:33:37;;;;;;;25.70;15.30;;;;;;;2.33;95.70;98232.73;435458;1251;108511;-42
2023/11/23 10:53:51;;;;;;;18.70;11.90;;;;;;;2.53;95.46;98175.71;435243;1251;107547;-41
2023/11/23 11:03:59;;;;;;;25.00;14.30;;;;;;;2.65;95.50;98160.71;435389;1253;95666;-40
2023/11/23 11:24:21;;;;;;;20.20;12.60;;;;;;;2.84;94.97;98107.45;435284;1251;108524;-41
2023/11/23 11:34:34;;;;;;;19.40;11.60;;;;;;;2.95;94.69;98081.95;435408;1251;95813;-42
2023/11/23 11:44:45;;;;;;;31.80;18.60;;;;;;;3.03;94.49;98063.17;435276;1251;107448;-40
2023/11/23 11:54:51;;;;;;;25.50;15.50;;;;;;;3.03;94.09;98049.27;435271;1254;106791;-42
2023/11/23 12:05:01;;;;;;;35.70;18.60;;;;;;;3.12;93.81;98032.80;435258;1250;97222;-41
2023/11/23 12:15:14;;;;;;;35.70;20.50;;;;;;;3.24;93.66;98028.12;435466;1254;109983;-41
2023/11/23 12:25:23;;;;;;;30.90;15.70;;;;;;;3.35;93.57;98019.71;435363;1254;108995;-42
2023/11/23 12:35:29;;;;;;;28.40;15.50;;;;;;;3.54;93.29;98018.89;435345;1254;96117;-41
2023/11/23 13:15:54;;;;;;;38.90;20.80;;;;;;;3.55;93.32;97951.58;435306;1254;109580;-40
2023/11/23 13:26:03;;;;;;;26.60;16.80;;;;;;;3.45;93.68;97930.30;435426;1251;107872;-41
2023/11/23 13:36:13;;;;;;;22.90;14.10;;;;;;;3.42;93.74;97907.55;435392;1250;96123;-41
2023/11/23 13:46:20;;;;;;;30.60;16.80;;;;;;;3.38;93.99;97890.99;435305;1254;108775;-42
2023/11/23 14:06:35;;;;;;;28.50;14.90;;;;;;;3.28;94.26;97891.94;435316;1251;118347;-43
2023/11/23 14:16:42;;;;;;;27.80;16.40;;;;;;;3.26;94.43;97875.26;435322;1254;109441;-41
2023/11/23 14:26:50;;;;;;;40.90;20.50;;;;;;;3.17;94.69;97864.29;435256;1250;109333;-41
2023/11/23 14:36:58;;;;;;;24.40;16.10;;;;;;;3.15;94.73;97853.70;435461;1254;95288;-41
2023/11/23 14:57:12;;;;;;;27.80;16.10;;;;;;;3.13;95.27;97830.19;435333;1254;96559;-41
2023/11/23 15:07:17;;;;;;;24.30;14.90;;;;;;;3.13;95.48;97824.84;435452;1251;108458;-40
2023/11/23 15:57:50;;;;;;;29.40;19.70;;;;;;;3.09;96.66;97710.88;435248;1254;96539;-43
2023/11/23 16:58:21;;;;;;;40.90;23.00;;;;;;;3.31;98.02;97580.81;436404;1253;108837;-41
2023/11/23 17:08:27;;;;;;;48.00;30.40;;;;;;;3.41;98.08;97572.49;436429;1249;95271;-40
2023/11/23 17:18:34;;;;;;;25.70;16.20;;;;;;;3.52;98.02;97555.36;436430;1247;95298;-40
2023/11/23 17:28:43;;;;;;;23.40;13.60;;;;;;;3.61;98.02;97527.81;436351;1251;111876;-40
2023/11/23 17:38:49;;;;;;;21.50;14.20;;;;;;;3.67;97.96;97507.66;436359;1247;108722;-42
2023/11/23 17:48:56;;;;;;;28.90;18.10;;;;;;;3.69;98.05;97477.64;436253;1251;97509;-40
2023/11/23 18:09:30;;;;;;;15.70;12.20;;;;;;;3.88;97.98;97415.13;436396;1252;108997;-41
2023/11/23 18:19:37;;;;;;;15.60;10.60;;;;;;;3.98;98.09;97371.05;436265;1248;97880;-41
2023/11/23 18:39:51;;;;;;;37.40;21.60;;;;;;;4.33;98.22;97298.45;436334;1253;97877;-41
2023/11/23 18:49:57;;;;;;;15.80;9.80;;;;;;;4.51;97.79;97257.09;436320;1253;111056;-40
2023/11/23 19:00:06;;;;;;;14.20;7.70;;;;;;;4.64;97.33;97191.91;436386;1253;108923;-43
2023/11/23 19:10:15;;;;;;;;;;;;;;;4.74;97.06;97189.88;436264;1253;96622;-41
2023/11/23 19:20:20;;;;;;;;;;;;;;;4.78;96.75;97163.20;436334;1253;108363;-41
2023/11/23 19:40:36;;;;;;;8.70;5.70;;;;;;;5.23;95.64;97153.06;436337;1253;110315;-41
2023/11/23 19:50:42;;;;;;;13.00;8.00;;;;;;;5.36;94.85;97136.95;436584;1251;106584;-41
2023/11/23 20:00:49;;;;;;;11.80;6.40;;;;;;;5.44;94.21;97115.30;436431;1252;96638;-41
2023/11/23 20:20:58;;;;;;;18.60;10.10;;;;;;;5.63;93.22;97062.89;436399;1251;97138;-41
2023/11/23 20:31:08;;;;;;;8.30;5.00;;;;;;;5.63;92.93;97025.86;436201;1253;110761;-40
2023/11/23 20:41:14;;;;;;;6.40;4.60;;;;;;;5.68;92.76;96998.65;436412;1251;107525;-41
2023/11/23 21:01:27;;;;;;;6.80;4.70;;;;;;;5.74;92.81;96940.14;436388;1253;109088;-39
2023/11/23 21:11:35;;;;;;;11.70;7.50;;;;;;;5.82;92.86;96907.16;436283;1253;107949;-40
2023/11/23 21:21:42;;;;;;;14.80;7.50;;;;;;;5.81;93.14;96889.36;436310;1253;97868;-39
2023/11/23 21:31:50;;;;;;;12.30;7.30;;;;;;;5.68;93.30;96859.64;436389;1252;108581;-40
2023/11/23 21:41:57;;;;;;;13.20;7.10;;;;;;;5.69;93.41;96838.11;436335;1253;96620;-39
2023/11/23 21:52:03;;;;;;;11.30;5.40;;;;;;;5.75;93.77;96850.21;436305;1252;110975;-40
2023/11/23 22:12:19;;;;;;;9.40;5.70;;;;;;;6.11;94.24;96804.88;436195;1253;97953;-40
2023/11/23 22:22:26;;;;;;;6.70;5.00;;;;;;;6.29;94.14;96776.20;436288;1253;108292;-39
2023/11/23 22:42:40;;;;;;;8.80;2.90;;;;;;;6.60;93.75;96720.41;436481;1252;109830;-40
2023/11/23 22:52:46;;;;;;;5.80;4.00;;;;;;;6.71;93.27;96696.91;436365;1253;108852;-40
2023/11/23 23:13:00;;;;;;;10.00;6.00;;;;;;;6.52;94.13;96676.54;436582;1248;107710;-40
2023/11/23 23:23:07;;;;;;;6.30;4.10;;;;;;;6.39;95.03;96685.79;437004;1261;97912;-39
2023/11/23 23:33:14;;;;;;;5.40;3.70;;;;;;;6.31;96.10;96700.79;436870;1252;110491;-38
2023/11/23 23:43:22;;;;;;;6.00;4.40;;;;;;;6.27;96.50;96724.27;436781;1252;107332;-38
2023/11/23 23:53:29;;;;;;;5.50;4.60;;;;;;;6.26;97.38;96744.42;436850;1254;98392;-40
